KGWB

De Kalb County Airport

Auburn, Indiana, USA
METAR KGWB 220035Z AUTO 03004KT 10SM BKN021 02/00 A3057 RMK AO2
Observed Flight Rules
Feb-22 @ 00:35 UTC (4 hours ago) Marginal Visual Flight Rules
Wind Visibility Clouds
30° at 4 knots 10 miles
  • Broken at 2,100' AGL
Temperatures Readings
Current 2°C / 36°F
Dewpoint 0°C / 32°F
Humidity 87%
Altimeter 30.57" Hg
Pressure 1035 hPa
Elevation 269
METAR KGWB 220035Z AUTO 03004KT 10SM BKN021 02/00 A3057 RMK AO2
Observed Flight Rules
Feb-22 @ 00:35 UTC
(4 hours ago)
MVFR
Wind Visibility
30° at 4 knots 10 miles
Clouds
  • Broken at 2,100' AGL
Temperature Dewpoint
2°C / 36°F 0°C / 32°F
Humidity Altimeter Pressure
87% 30.57" Hg 1035 hPa